Grand Rapids, MN (55730)

9:48 PM CDT on June 25, 2017 (GMT -0500)
Grandpa TAZ's Weather | | Change Station

Elev 1328 ft 47.24 °N, 93.51 °W | Updated 11 seconds ago

Overcast
Overcast
52.0 °F
Feels Like 52.0 °F
N
0.0
Wind Variable Wind from WSW
Gusts 2.5 mph

Today
High -- | Low -- °F
--% Chance of Precip.
Yesterday
High -- | Low -- °F
Precip. -- in
Pressure 30.18 in
Visibility 10.0 miles
Clouds Mostly Cloudy 3800 ft
Overcast 4700 ft
Dew Point 47 °F
Humidity 83%
Rainfall 0.30 in
Snow Depth Not available.
5:19 AM 9:14 PM
Waxing Crescent, 6% visible
METAR KGPZ 260156Z AUTO 36004KT 10SM -RA BKN038 OVC047 10/08 A3015 RMK AO2 RAB00 SLP218 T01000078 PNO $
Pressure 30.18 in
Visibility 10.0 miles
Clouds Mostly Cloudy 3800 ft
Overcast 4700 ft
Dew Point 47 °F
Humidity 83%
Rainfall 0.30 in
Snow Depth Not available.
5:19 AM 9:14 PM
Waxing Crescent, 6% visible
METAR KGPZ 260156Z AUTO 36004KT 10SM -RA BKN038 OVC047 10/08 A3015 RMK AO2 RAB00 SLP218 T01000078 PNO $

Get Severe Weather Alerts

Thanks for signing up!

Be on the lookout for a verification email in your inbox.

You'll start receiving the daily forecast at 6 AM.

×

10-Day Weather Forecast

Almanac

Astronomy

Jun. 25, 2017 Rise Set
Actual Time
Civil Twilight
Nautical Twilight
Astronomical Twilight
Moon
Length of Visible Light
Length of Day
Tomorrow will be .
, % of the Moon is Illuminated

Today's Extremes

State Highs State Lows

Community

WunderPhotos

Category 6

Welcome to Category 6. This is the collective home for Weather Underground's featured writeups by Dr. Jeff Masters (right), Bob Henson (left), Chris Burt, and other regular contributors.

Nearby

Air Quality

  Air Quality AQ Index Pollutant
Not available.

Snow Depth

Station Depth Elevation

Earthquake Activity

City Distance Mag. Time & Date
Minimum magnitude displayed is 2.5.

Coastal Water Temperatures

Place Temperature

Stations

Nearby Weather Stations

Station Location Temp. Windchill Dew Point Humidity Wind Precip. Elev Updated Type
                   

Watches & Warnings

There are currently no watches in effect.